createdAt,value
2023-08-29T00:00:38.713Z,26
2023-08-29T00:01:38.639Z,27
2023-08-29T00:02:38.634Z,26
2023-08-29T00:03:38.710Z,26
2023-08-29T00:04:38.892Z,27
2023-08-29T00:05:38.668Z,27
2023-08-29T00:06:38.608Z,29
2023-08-29T00:07:38.678Z,26
2023-08-29T00:08:38.819Z,27
2023-08-29T00:09:38.699Z,27
2023-08-29T00:10:38.677Z,26
2023-08-29T00:11:38.615Z,27
2023-08-29T00:12:38.611Z,31
2023-08-29T00:13:38.706Z,26
2023-08-29T00:14:38.716Z,26
2023-08-29T00:15:38.716Z,27
2023-08-29T00:16:38.698Z,28
2023-08-29T00:17:38.658Z,30
2023-08-29T00:18:38.661Z,29
2023-08-29T00:19:38.648Z,32
2023-08-29T00:20:38.646Z,27
2023-08-29T00:21:38.615Z,29
2023-08-29T00:22:38.643Z,27
2023-08-29T00:23:38.772Z,28
2023-08-29T00:24:38.637Z,27
2023-08-29T00:25:38.700Z,26
2023-08-29T00:26:38.606Z,27
2023-08-29T00:27:38.709Z,28
2023-08-29T00:28:38.611Z,26
2023-08-29T00:29:38.700Z,26
2023-08-29T00:30:39.345Z,25
2023-08-29T00:31:38.672Z,26
2023-08-29T00:32:38.708Z,28
2023-08-29T00:33:38.660Z,28
2023-08-29T00:34:38.633Z,25
2023-08-29T00:35:38.612Z,26
2023-08-29T00:36:38.765Z,26
2023-08-29T00:37:38.642Z,27
2023-08-29T00:38:38.608Z,27
2023-08-29T00:39:38.669Z,28
2023-08-29T00:40:38.689Z,28
2023-08-29T00:41:38.687Z,27
2023-08-29T00:42:38.619Z,28
2023-08-29T00:43:38.698Z,28
2023-08-29T00:44:38.718Z,28
2023-08-29T00:45:38.780Z,28
2023-08-29T00:46:38.783Z,30
2023-08-29T00:47:38.667Z,31
2023-08-29T00:48:38.879Z,29
2023-08-29T00:49:38.830Z,30
2023-08-29T00:50:38.650Z,29
2023-08-29T00:51:38.618Z,30
2023-08-29T00:52:38.613Z,30
2023-08-29T00:53:38.676Z,29
2023-08-29T00:54:38.788Z,32
2023-08-29T00:55:38.693Z,34
2023-08-29T00:56:38.678Z,28
2023-08-29T00:57:38.691Z,30
2023-08-29T00:58:38.700Z,32
2023-08-29T00:59:38.609Z,31
2023-08-29T01:00:38.720Z,29
2023-08-29T01:01:38.717Z,30
2023-08-29T01:02:38.664Z,28
2023-08-29T01:03:38.653Z,29
2023-08-29T01:04:38.777Z,29
2023-08-29T01:05:38.753Z,28
2023-08-29T01:06:38.674Z,30
2023-08-29T01:07:38.671Z,29
2023-08-29T01:08:38.662Z,27
2023-08-29T01:09:38.685Z,27
2023-08-29T01:10:38.688Z,28
2023-08-29T01:11:38.622Z,28
2023-08-29T01:12:38.668Z,27
2023-08-29T01:13:38.698Z,28
2023-08-29T01:14:38.642Z,27
2023-08-29T01:15:38.641Z,27
2023-08-29T01:16:38.720Z,29
2023-08-29T01:17:38.774Z,29
2023-08-29T01:18:38.649Z,27
2023-08-29T01:19:38.640Z,29
2023-08-29T01:20:38.748Z,28
2023-08-29T01:21:38.654Z,29
2023-08-29T01:22:38.620Z,29
2023-08-29T01:23:38.653Z,28
2023-08-29T01:24:38.619Z,31
2023-08-29T01:25:38.680Z,30
2023-08-29T01:26:38.689Z,32
2023-08-29T01:27:38.715Z,27
2023-08-29T01:28:38.702Z,28
2023-08-29T01:29:38.686Z,26
2023-08-29T01:30:38.714Z,25
2023-08-29T01:31:38.671Z,27
2023-08-29T01:32:38.674Z,26
2023-08-29T01:33:38.758Z,26
2023-08-29T01:34:38.660Z,28
2023-08-29T01:35:38.627Z,29
2023-08-29T01:36:38.641Z,28
2023-08-29T01:37:38.781Z,31
2023-08-29T01:38:38.672Z,28
2023-08-29T01:39:38.669Z,30
2023-08-29T01:40:38.671Z,28
2023-08-29T01:41:38.638Z,27
2023-08-29T01:42:38.677Z,28
2023-08-29T01:43:38.616Z,23
2023-08-29T01:44:38.645Z,24
2023-08-29T01:45:38.719Z,26
2023-08-29T01:46:38.694Z,25
2023-08-29T01:47:38.642Z,27
2023-08-29T01:48:38.639Z,26
2023-08-29T01:49:38.658Z,26
2023-08-29T01:50:38.646Z,27
2023-08-29T01:51:38.646Z,25
2023-08-29T01:52:38.634Z,26
2023-08-29T01:53:38.650Z,23
2023-08-29T01:54:38.667Z,24
2023-08-29T01:55:38.639Z,24
2023-08-29T01:56:38.648Z,26
2023-08-29T01:57:38.624Z,24
2023-08-29T01:58:38.612Z,23
2023-08-29T01:59:38.621Z,27
2023-08-29T02:00:38.643Z,23
2023-08-29T02:01:38.685Z,23
2023-08-29T02:02:38.736Z,24
2023-08-29T02:03:38.629Z,23
2023-08-29T02:04:38.688Z,23
2023-08-29T02:05:38.643Z,22
2023-08-29T02:06:38.643Z,23
2023-08-29T02:07:38.743Z,23
2023-08-29T02:08:38.674Z,27
2023-08-29T02:09:38.670Z,26
2023-08-29T02:10:38.683Z,24
2023-08-29T02:11:38.632Z,20
2023-08-29T02:12:38.609Z,21
2023-08-29T02:13:38.674Z,20
2023-08-29T02:14:38.711Z,21
2023-08-29T02:15:38.663Z,22
2023-08-29T02:16:38.664Z,22
2023-08-29T02:17:38.687Z,22
2023-08-29T02:18:38.738Z,23
2023-08-29T02:19:38.755Z,23
2023-08-29T02:20:38.632Z,25
2023-08-29T02:21:38.633Z,23
2023-08-29T02:22:38.644Z,25
2023-08-29T02:23:38.679Z,24
2023-08-29T02:24:38.732Z,26
2023-08-29T02:25:38.681Z,27
2023-08-29T02:26:38.679Z,28
2023-08-29T02:27:38.678Z,26
2023-08-29T02:28:38.720Z,26
2023-08-29T02:29:38.634Z,30
2023-08-29T02:30:38.638Z,29
2023-08-29T02:31:38.631Z,27
2023-08-29T02:32:38.684Z,30
2023-08-29T02:33:38.782Z,29
2023-08-29T02:34:38.754Z,31
2023-08-29T02:35:38.732Z,30
2023-08-29T02:36:38.735Z,30
2023-08-29T02:37:38.652Z,32
2023-08-29T02:38:38.677Z,31
2023-08-29T02:39:38.663Z,34
2023-08-29T02:40:38.675Z,33
2023-08-29T02:41:38.605Z,31
2023-08-29T02:42:38.658Z,32
2023-08-29T02:43:38.718Z,30
2023-08-29T02:44:38.614Z,32
2023-08-29T02:45:38.695Z,34
2023-08-29T02:46:38.748Z,33
2023-08-29T02:47:38.768Z,30
2023-08-29T02:48:38.740Z,30
2023-08-29T02:49:38.734Z,34
2023-08-29T02:50:38.741Z,35
2023-08-29T02:51:38.641Z,32
2023-08-29T02:52:38.657Z,33
2023-08-29T02:53:38.649Z,33
2023-08-29T02:54:38.654Z,35
2023-08-29T02:55:38.655Z,36
2023-08-29T02:56:38.649Z,36
2023-08-29T02:57:38.646Z,38
2023-08-29T02:58:38.682Z,36
2023-08-29T02:59:38.700Z,37
2023-08-29T03:00:38.754Z,35
2023-08-29T03:01:38.654Z,37
2023-08-29T03:02:38.701Z,41
2023-08-29T03:03:38.875Z,39
2023-08-29T03:04:38.734Z,35
2023-08-29T03:05:38.751Z,37
2023-08-29T03:06:38.744Z,35
2023-08-29T03:07:38.748Z,34
2023-08-29T03:08:38.751Z,36
2023-08-29T03:09:38.633Z,35
2023-08-29T03:10:38.657Z,35
2023-08-29T03:11:38.647Z,35
2023-08-29T03:12:38.665Z,40
2023-08-29T03:13:38.715Z,38
2023-08-29T03:14:38.689Z,36
2023-08-29T03:15:38.707Z,37
2023-08-29T03:16:38.717Z,36
2023-08-29T03:17:38.736Z,36
2023-08-29T03:18:38.731Z,35
2023-08-29T03:19:38.747Z,40
2023-08-29T03:20:38.756Z,36
2023-08-29T03:21:38.653Z,35
2023-08-29T03:22:38.641Z,45
2023-08-29T03:23:38.665Z,38
2023-08-29T03:24:38.664Z,39
2023-08-29T03:25:38.668Z,34
2023-08-29T03:26:38.677Z,37
2023-08-29T03:27:38.676Z,39
2023-08-29T03:28:38.655Z,38
2023-08-29T03:29:38.700Z,37
2023-08-29T03:30:38.687Z,38
2023-08-29T03:31:38.655Z,35
2023-08-29T03:32:38.814Z,38
2023-08-29T03:33:38.691Z,35
2023-08-29T03:34:38.681Z,36
2023-08-29T03:35:38.616Z,36
2023-08-29T03:36:38.645Z,37
2023-08-29T03:37:38.741Z,36
2023-08-29T03:38:38.771Z,34
2023-08-29T03:39:38.746Z,35
2023-08-29T03:40:38.653Z,39
2023-08-29T03:41:38.647Z,37
2023-08-29T03:42:38.838Z,36
2023-08-29T03:43:38.718Z,34
2023-08-29T03:44:38.626Z,34
2023-08-29T03:45:38.640Z,37
2023-08-29T03:46:38.648Z,37
2023-08-29T03:47:38.789Z,34
2023-08-29T03:48:39.120Z,36
2023-08-29T03:49:38.653Z,36
2023-08-29T03:50:38.645Z,35
2023-08-29T03:51:38.667Z,33
2023-08-29T03:52:38.645Z,36
2023-08-29T03:53:38.657Z,34
2023-08-29T03:54:38.638Z,37
2023-08-29T03:55:38.749Z,36
2023-08-29T03:56:40.845Z,36
2023-08-29T03:57:38.681Z,35
2023-08-29T03:58:38.695Z,36
2023-08-29T03:59:38.675Z,36
2023-08-29T04:00:38.702Z,33
2023-08-29T04:01:38.662Z,35
2023-08-29T04:02:38.674Z,30
2023-08-29T04:03:38.831Z,33
2023-08-29T04:04:38.894Z,31
2023-08-29T04:05:38.850Z,30
2023-08-29T04:06:38.750Z,30
2023-08-29T04:07:38.755Z,33
2023-08-29T04:08:38.746Z,24
2023-08-29T04:09:38.643Z,23
2023-08-29T04:10:38.769Z,24
2023-08-29T04:11:38.666Z,24
2023-08-29T04:12:38.682Z,29
2023-08-29T04:13:38.634Z,26
2023-08-29T04:14:38.645Z,28
2023-08-29T04:15:38.695Z,26
2023-08-29T04:16:38.691Z,27
2023-08-29T04:17:38.732Z,27
2023-08-29T04:18:38.719Z,28
2023-08-29T04:19:38.674Z,28
2023-08-29T04:20:38.726Z,27
2023-08-29T04:21:38.645Z,31
2023-08-29T04:22:38.633Z,26
2023-08-29T04:23:38.641Z,30
2023-08-29T04:24:38.655Z,31
2023-08-29T04:25:38.637Z,30
2023-08-29T04:26:38.640Z,30
2023-08-29T04:27:38.657Z,33
2023-08-29T04:28:38.713Z,32
2023-08-29T04:29:38.648Z,34
2023-08-29T04:30:38.666Z,33
2023-08-29T04:31:38.676Z,32
2023-08-29T04:32:38.814Z,35
2023-08-29T04:33:38.723Z,35
2023-08-29T04:34:38.900Z,34
2023-08-29T04:35:38.872Z,33
2023-08-29T04:36:38.725Z,33
2023-08-29T04:37:38.656Z,36
2023-08-29T04:38:38.672Z,35
2023-08-29T04:39:40.081Z,36
2023-08-29T04:40:38.666Z,32
2023-08-29T04:41:38.656Z,33
2023-08-29T04:42:38.648Z,32
2023-08-29T04:43:38.689Z,33
2023-08-29T04:44:38.820Z,32
2023-08-29T04:45:38.717Z,30
2023-08-29T04:46:38.805Z,32
2023-08-29T04:47:38.793Z,34
2023-08-29T04:48:38.752Z,31
2023-08-29T04:49:38.721Z,30
2023-08-29T04:50:38.722Z,29
2023-08-29T04:51:38.662Z,29
2023-08-29T04:52:38.679Z,30
2023-08-29T04:53:38.752Z,30
2023-08-29T04:54:38.729Z,25
2023-08-29T04:55:38.634Z,28
2023-08-29T04:56:38.667Z,28
2023-08-29T04:57:38.720Z,28
2023-08-29T04:58:38.637Z,25
2023-08-29T04:59:38.659Z,25
2023-08-29T05:00:38.773Z,27
2023-08-29T05:01:38.662Z,29
2023-08-29T05:02:38.691Z,27
2023-08-29T05:03:38.761Z,30
2023-08-29T05:04:38.678Z,27
2023-08-29T05:05:38.631Z,29
2023-08-29T05:06:38.748Z,28
2023-08-29T05:07:38.752Z,30
2023-08-29T05:08:38.671Z,27
2023-08-29T05:09:38.763Z,31
2023-08-29T05:10:38.739Z,30
2023-08-29T05:11:38.637Z,31
2023-08-29T05:12:38.645Z,29
2023-08-29T05:13:38.680Z,29
2023-08-29T05:14:38.640Z,29
2023-08-29T05:15:40.628Z,29
2023-08-29T05:16:38.684Z,28
2023-08-29T05:17:38.722Z,25
2023-08-29T05:18:38.662Z,28
2023-08-29T05:19:38.683Z,30
2023-08-29T05:20:38.675Z,29
2023-08-29T05:21:38.638Z,29
2023-08-29T05:22:38.642Z,31
2023-08-29T05:23:38.636Z,29
2023-08-29T05:24:38.687Z,30
2023-08-29T05:25:38.724Z,28
2023-08-29T05:26:38.660Z,29
2023-08-29T05:27:38.655Z,28
2023-08-29T05:28:38.636Z,27
2023-08-29T05:29:38.652Z,28
2023-08-29T05:30:38.643Z,30
2023-08-29T05:31:38.663Z,31
2023-08-29T05:32:38.715Z,30
2023-08-29T05:33:38.679Z,29
2023-08-29T05:34:38.679Z,29
2023-08-29T05:35:38.639Z,31
2023-08-29T05:36:38.632Z,28
2023-08-29T05:37:38.730Z,29
2023-08-29T05:38:38.726Z,33
2023-08-29T05:39:38.733Z,27
2023-08-29T05:40:38.749Z,29
2023-08-29T05:41:38.684Z,29
2023-08-29T05:42:38.657Z,28
2023-08-29T05:43:38.643Z,30
2023-08-29T05:44:38.677Z,31
2023-08-29T05:45:38.677Z,31
2023-08-29T05:46:39.064Z,34
2023-08-29T05:47:38.663Z,32
2023-08-29T05:48:38.696Z,33
2023-08-29T05:49:38.761Z,30
2023-08-29T05:50:38.751Z,34
2023-08-29T05:51:38.657Z,33
2023-08-29T05:52:38.654Z,35
2023-08-29T05:53:38.735Z,32
2023-08-29T05:54:38.654Z,35
2023-08-29T05:55:38.743Z,34
2023-08-29T05:56:38.672Z,34
2023-08-29T05:57:38.749Z,33
2023-08-29T05:58:38.657Z,38
2023-08-29T05:59:38.652Z,34
2023-08-29T06:00:38.824Z,36
2023-08-29T06:01:38.635Z,37
2023-08-29T06:02:38.722Z,41
2023-08-29T06:03:38.736Z,42
2023-08-29T06:04:38.778Z,41
2023-08-29T06:05:38.700Z,41
2023-08-29T06:06:38.709Z,42
2023-08-29T06:07:38.697Z,41
2023-08-29T06:08:38.660Z,39
2023-08-29T06:09:38.649Z,40
2023-08-29T06:10:38.737Z,42
2023-08-29T06:11:38.655Z,42
2023-08-29T06:12:38.673Z,42
2023-08-29T06:13:38.687Z,43
2023-08-29T06:14:38.656Z,42
2023-08-29T06:15:38.674Z,44
2023-08-29T06:16:38.711Z,42
2023-08-29T06:17:38.730Z,48
2023-08-29T06:18:38.695Z,47
2023-08-29T06:19:38.703Z,44
2023-08-29T06:20:38.734Z,42
2023-08-29T06:21:38.691Z,43
2023-08-29T06:22:38.662Z,41
2023-08-29T06:23:38.740Z,41
2023-08-29T06:24:38.734Z,44
2023-08-29T06:25:38.708Z,46
2023-08-29T06:26:38.648Z,49
2023-08-29T06:27:38.755Z,46
2023-08-29T06:28:38.636Z,44
2023-08-29T06:29:38.671Z,45
2023-08-29T06:30:38.887Z,46
2023-08-29T06:31:38.656Z,50
2023-08-29T06:32:38.682Z,45
2023-08-29T06:33:38.911Z,44
2023-08-29T06:34:38.705Z,45
2023-08-29T06:35:38.721Z,58
2023-08-29T06:36:38.699Z,52
2023-08-29T06:37:38.715Z,47
2023-08-29T06:38:38.698Z,43
2023-08-29T06:39:38.661Z,42
2023-08-29T06:40:38.751Z,45
2023-08-29T06:41:38.666Z,48
2023-08-29T06:42:38.645Z,53
2023-08-29T06:43:38.665Z,47
2023-08-29T06:44:38.668Z,55
2023-08-29T06:45:38.771Z,60
2023-08-29T06:46:38.897Z,50
2023-08-29T06:47:38.696Z,57
2023-08-29T06:48:38.694Z,58
2023-08-29T06:49:38.978Z,61
2023-08-29T06:50:38.697Z,66
2023-08-29T06:51:38.638Z,66
2023-08-29T06:52:38.665Z,59
2023-08-29T06:53:38.747Z,56
2023-08-29T06:54:38.720Z,56
2023-08-29T06:55:38.728Z,57
2023-08-29T06:56:38.677Z,53
2023-08-29T06:57:38.737Z,57
2023-08-29T06:58:38.803Z,66
2023-08-29T06:59:38.757Z,68
2023-08-29T07:00:38.672Z,71
2023-08-29T07:01:38.706Z,77
2023-08-29T07:02:38.837Z,87
2023-08-29T07:03:38.735Z,81
2023-08-29T07:04:38.699Z,81
2023-08-29T07:05:38.689Z,82
2023-08-29T07:06:38.700Z,73
2023-08-29T07:07:38.769Z,72
2023-08-29T07:08:38.708Z,71
2023-08-29T07:09:38.722Z,71
2023-08-29T07:10:38.682Z,77
2023-08-29T07:11:38.639Z,70
2023-08-29T07:12:38.652Z,69
2023-08-29T07:13:38.748Z,66
2023-08-29T07:14:38.751Z,70
2023-08-29T07:15:38.646Z,78
2023-08-29T07:16:38.800Z,88
2023-08-29T07:17:38.689Z,82
2023-08-29T07:18:38.782Z,85
2023-08-29T07:19:38.799Z,96
2023-08-29T07:20:38.706Z,86
2023-08-29T07:21:38.656Z,85
2023-08-29T07:22:38.665Z,85
2023-08-29T07:23:38.648Z,85
2023-08-29T07:24:38.712Z,79
2023-08-29T07:25:38.714Z,80
2023-08-29T07:26:38.738Z,85
2023-08-29T07:27:38.772Z,82
2023-08-29T07:28:38.655Z,84
2023-08-29T07:29:38.780Z,77
2023-08-29T07:30:38.776Z,79
2023-08-29T07:31:38.963Z,78
2023-08-29T07:32:38.700Z,80
2023-08-29T07:33:38.782Z,77
2023-08-29T07:34:38.792Z,83
2023-08-29T07:35:38.859Z,81
2023-08-29T07:36:39.001Z,80
2023-08-29T07:37:38.680Z,83
2023-08-29T07:38:38.709Z,78
2023-08-29T07:39:38.656Z,80
2023-08-29T07:40:38.666Z,82
2023-08-29T07:41:38.681Z,97
2023-08-29T07:42:38.676Z,97
2023-08-29T07:43:38.746Z,82
2023-08-29T07:44:38.752Z,76
2023-08-29T07:45:38.763Z,76
2023-08-29T07:46:38.709Z,73
2023-08-29T07:47:38.720Z,77
2023-08-29T07:48:38.692Z,79
2023-08-29T07:49:38.667Z,73
2023-08-29T07:50:38.726Z,71
2023-08-29T07:51:38.702Z,65
2023-08-29T07:52:40.984Z,62
2023-08-29T07:53:38.800Z,63
2023-08-29T07:54:38.650Z,62
2023-08-29T07:55:38.736Z,65
2023-08-29T07:56:38.733Z,61
2023-08-29T07:57:38.664Z,59
2023-08-29T07:58:38.660Z,58
2023-08-29T07:59:38.698Z,56
2023-08-29T08:00:38.663Z,59
2023-08-29T08:01:38.703Z,57
2023-08-29T08:02:38.695Z,54
2023-08-29T08:03:38.712Z,59
2023-08-29T08:04:38.732Z,55
2023-08-29T08:05:38.660Z,53
2023-08-29T08:06:38.694Z,48
2023-08-29T08:07:38.701Z,48
2023-08-29T08:08:38.848Z,48
2023-08-29T08:09:38.722Z,53
2023-08-29T08:10:38.711Z,54
2023-08-29T08:11:38.662Z,56
2023-08-29T08:12:38.642Z,56
2023-08-29T08:13:38.746Z,55
2023-08-29T08:14:38.751Z,54
2023-08-29T08:15:38.685Z,52
2023-08-29T08:16:38.738Z,50
2023-08-29T08:17:38.701Z,51
2023-08-29T08:18:38.696Z,49
2023-08-29T08:19:38.688Z,50
2023-08-29T08:20:38.686Z,48
2023-08-29T08:21:38.679Z,50
2023-08-29T08:22:38.668Z,51
2023-08-29T08:23:38.715Z,49
2023-08-29T08:24:38.709Z,49
2023-08-29T08:25:38.652Z,48
2023-08-29T08:26:38.664Z,47
2023-08-29T08:27:38.747Z,45
2023-08-29T08:28:38.714Z,45
2023-08-29T08:29:38.728Z,46
2023-08-29T08:30:38.687Z,46
2023-08-29T08:31:38.796Z,47
2023-08-29T08:32:38.684Z,46
2023-08-29T08:33:38.919Z,44
2023-08-29T08:34:38.809Z,45
2023-08-29T08:35:48.001Z,42
2023-08-29T08:36:38.658Z,40
2023-08-29T08:37:38.717Z,41
2023-08-29T08:38:38.699Z,39
2023-08-29T08:39:38.703Z,42
2023-08-29T08:40:38.711Z,40
2023-08-29T08:41:38.703Z,39
2023-08-29T08:42:38.663Z,40
2023-08-29T08:43:38.683Z,41
2023-08-29T08:44:38.665Z,39
2023-08-29T08:45:38.775Z,37
2023-08-29T08:46:38.771Z,40
2023-08-29T08:47:38.826Z,40
2023-08-29T08:48:38.799Z,40
2023-08-29T08:49:38.685Z,43
2023-08-29T08:50:38.697Z,41
2023-08-29T08:51:38.677Z,33
2023-08-29T08:52:38.676Z,35
2023-08-29T08:53:38.722Z,35
2023-08-29T08:54:38.708Z,38
2023-08-29T08:55:38.729Z,43
2023-08-29T08:56:38.727Z,35
2023-08-29T08:57:38.658Z,39
2023-08-29T08:58:38.685Z,34
2023-08-29T08:59:38.727Z,29
2023-08-29T09:00:38.760Z,25
2023-08-29T09:01:38.735Z,31
2023-08-29T09:02:38.763Z,35
2023-08-29T09:03:38.832Z,32
2023-08-29T09:04:38.794Z,29
2023-08-29T09:05:38.794Z,30
2023-08-29T09:06:38.685Z,34
2023-08-29T09:07:38.697Z,31
2023-08-29T09:08:38.715Z,30
2023-08-29T09:09:38.680Z,31
2023-08-29T09:10:38.698Z,35
2023-08-29T09:11:38.653Z,36
2023-08-29T09:12:38.685Z,32
2023-08-29T09:13:38.736Z,35
2023-08-29T09:14:38.680Z,33
2023-08-29T09:15:38.761Z,35
2023-08-29T09:16:38.745Z,31
2023-08-29T09:17:38.781Z,31
2023-08-29T09:18:38.779Z,27
2023-08-29T09:19:38.780Z,30
2023-08-29T09:20:38.950Z,32
2023-08-29T09:21:38.756Z,35
2023-08-29T09:22:38.773Z,35
2023-08-29T09:23:38.953Z,31
2023-08-29T09:24:38.669Z,30
2023-08-29T09:25:38.716Z,30
2023-08-29T09:26:38.722Z,33
2023-08-29T09:27:38.717Z,30
2023-08-29T09:28:38.700Z,28
2023-08-29T09:29:38.748Z,31
2023-08-29T09:30:38.746Z,30
2023-08-29T09:31:38.751Z,30
2023-08-29T09:32:38.727Z,30
2023-08-29T09:33:38.810Z,27
2023-08-29T09:34:38.776Z,30
2023-08-29T09:35:38.658Z,27
2023-08-29T09:36:38.776Z,29
2023-08-29T09:37:38.797Z,29
2023-08-29T09:38:38.657Z,28
2023-08-29T09:39:38.699Z,29
2023-08-29T09:40:40.997Z,30
2023-08-29T09:41:38.664Z,31
2023-08-29T09:42:38.675Z,29
2023-08-29T09:43:38.723Z,30
2023-08-29T09:44:38.743Z,28
2023-08-29T09:45:38.951Z,30
2023-08-29T09:46:38.671Z,29
2023-08-29T09:47:38.678Z,30
2023-08-29T09:48:38.763Z,28
2023-08-29T09:49:38.781Z,33
2023-08-29T09:50:38.838Z,28
2023-08-29T09:51:38.676Z,30
2023-08-29T09:52:38.667Z,30
2023-08-29T09:53:38.775Z,28
2023-08-29T09:54:38.689Z,30
2023-08-29T09:55:38.706Z,30
2023-08-29T09:56:38.724Z,26
2023-08-29T09:57:38.676Z,31
2023-08-29T09:58:38.670Z,27
2023-08-29T09:59:38.729Z,27
2023-08-29T10:00:38.768Z,30
2023-08-29T10:01:38.717Z,27
2023-08-29T10:02:38.809Z,27
2023-08-29T10:03:38.684Z,27
2023-08-29T10:04:38.670Z,26
2023-08-29T10:05:38.775Z,27
2023-08-29T10:06:38.799Z,25
2023-08-29T10:07:38.688Z,26
2023-08-29T10:08:38.696Z,24
2023-08-29T10:09:38.834Z,25
2023-08-29T10:10:38.806Z,26
2023-08-29T10:11:52.329Z,26
2023-08-29T10:12:38.677Z,25
2023-08-29T10:13:38.739Z,23
2023-08-29T10:14:38.748Z,25
2023-08-29T10:15:39.165Z,25
2023-08-29T10:16:38.777Z,22
2023-08-29T10:17:38.840Z,22
2023-08-29T10:18:38.712Z,21
2023-08-29T10:19:38.783Z,21
2023-08-29T10:20:38.827Z,21
2023-08-29T10:21:38.661Z,29
2023-08-29T10:22:38.668Z,23
2023-08-29T10:23:38.674Z,22
2023-08-29T10:24:38.689Z,23
2023-08-29T10:25:38.692Z,19
2023-08-29T10:26:38.807Z,27
2023-08-29T10:27:38.726Z,21
2023-08-29T10:28:38.746Z,27
2023-08-29T10:29:38.731Z,24
2023-08-29T10:30:38.684Z,21
2023-08-29T10:31:38.681Z,20
2023-08-29T10:32:38.738Z,19
2023-08-29T10:33:38.771Z,21
2023-08-29T10:34:38.782Z,18
2023-08-29T10:35:38.773Z,22
2023-08-29T10:36:38.909Z,22
2023-08-29T10:37:38.681Z,21
2023-08-29T10:38:38.811Z,17
2023-08-29T10:39:38.807Z,19
2023-08-29T10:40:38.687Z,21
2023-08-29T10:41:38.680Z,20
2023-08-29T10:42:38.729Z,23
2023-08-29T10:43:38.710Z,22
2023-08-29T10:44:38.731Z,20
2023-08-29T10:45:38.666Z,20
2023-08-29T10:46:38.780Z,33
2023-08-29T10:47:38.813Z,26
2023-08-29T10:48:38.763Z,21
2023-08-29T10:49:38.764Z,22
2023-08-29T10:50:38.759Z,22
2023-08-29T10:51:38.667Z,16
2023-08-29T10:52:38.688Z,16
2023-08-29T10:53:38.808Z,17
2023-08-29T10:54:38.684Z,16
2023-08-29T10:55:38.683Z,15
2023-08-29T10:56:38.759Z,18
2023-08-29T10:57:38.670Z,15
2023-08-29T10:58:38.697Z,14
2023-08-29T10:59:38.715Z,18
2023-08-29T11:00:38.745Z,14
2023-08-29T11:01:38.707Z,16
2023-08-29T11:02:38.697Z,12
2023-08-29T11:03:38.828Z,12
2023-08-29T11:04:53.949Z,13
2023-08-29T11:05:38.835Z,15
2023-08-29T11:06:38.725Z,14
2023-08-29T11:07:38.711Z,13
2023-08-29T11:08:38.691Z,13
2023-08-29T11:09:38.678Z,12
2023-08-29T11:10:38.700Z,14
2023-08-29T11:11:38.673Z,13
2023-08-29T11:12:38.673Z,12
2023-08-29T11:13:38.719Z,13
2023-08-29T11:14:38.710Z,12
2023-08-29T11:15:38.723Z,13
2023-08-29T11:16:38.815Z,12
2023-08-29T11:17:38.708Z,12
2023-08-29T11:18:38.758Z,11
2023-08-29T11:19:38.767Z,12
2023-08-29T11:20:38.755Z,12
2023-08-29T11:21:38.668Z,11
2023-08-29T11:22:38.701Z,12
2023-08-29T11:23:38.781Z,12
2023-08-29T11:24:38.785Z,11
2023-08-29T11:25:38.794Z,10
2023-08-29T11:26:38.701Z,10
2023-08-29T11:27:38.725Z,10
2023-08-29T11:28:38.664Z,10
2023-08-29T11:29:38.686Z,10
2023-08-29T11:30:44.149Z,11
2023-08-29T11:31:38.761Z,11
2023-08-29T11:32:38.714Z,12
2023-08-29T11:33:38.757Z,14
2023-08-29T11:34:38.712Z,11
2023-08-29T11:35:38.694Z,10
2023-08-29T11:36:38.664Z,10
2023-08-29T11:37:38.768Z,11
2023-08-29T11:38:38.787Z,11
2023-08-29T11:39:38.776Z,31
2023-08-29T11:40:48.316Z,18
2023-08-29T11:41:54.686Z,35
2023-08-29T11:42:47.514Z,41
2023-08-29T11:44:12.803Z,44
2023-08-29T11:45:11.373Z,19
2023-08-29T11:45:46.941Z,15
2023-08-29T11:46:38.744Z,13
2023-08-29T11:47:38.731Z,13
2023-08-29T11:48:38.708Z,12
2023-08-29T11:49:38.754Z,13
2023-08-29T11:50:38.756Z,27
2023-08-29T11:51:38.669Z,19
2023-08-29T11:52:38.700Z,15
2023-08-29T11:53:38.820Z,11
2023-08-29T11:54:38.766Z,13
2023-08-29T11:55:38.722Z,11
2023-08-29T11:56:38.721Z,11
2023-08-29T11:57:38.710Z,12
2023-08-29T11:58:38.694Z,13
2023-08-29T11:59:38.696Z,12
2023-08-29T12:00:38.688Z,14
2023-08-29T12:01:38.735Z,14
2023-08-29T12:02:38.710Z,13
2023-08-29T12:03:38.856Z,13
2023-08-29T12:04:38.760Z,11
2023-08-29T12:05:38.761Z,12
2023-08-29T12:06:38.792Z,14
2023-08-29T12:07:38.772Z,16
2023-08-29T12:08:38.683Z,12
2023-08-29T12:09:38.673Z,10
2023-08-29T12:10:38.805Z,15
2023-08-29T12:11:38.732Z,11
2023-08-29T12:12:38.727Z,9
2023-08-29T12:13:38.703Z,9
2023-08-29T12:14:38.699Z,9
2023-08-29T12:15:43.721Z,9
2023-08-29T12:16:38.758Z,11
2023-08-29T12:17:38.745Z,9
2023-08-29T12:18:38.752Z,9
2023-08-29T12:19:38.764Z,10
2023-08-29T12:20:38.765Z,9
2023-08-29T12:21:38.713Z,9
2023-08-29T12:22:38.690Z,10
2023-08-29T12:23:38.879Z,9
2023-08-29T12:24:38.774Z,8
2023-08-29T12:25:38.781Z,10
2023-08-29T12:26:38.804Z,9
2023-08-29T12:27:38.810Z,8
2023-08-29T12:28:38.716Z,9
2023-08-29T12:29:38.814Z,9
2023-08-29T12:30:38.757Z,9
2023-08-29T12:31:38.683Z,8
2023-08-29T12:32:38.691Z,9
2023-08-29T12:33:38.693Z,9
2023-08-29T12:34:38.768Z,8
2023-08-29T12:35:38.762Z,8
2023-08-29T12:36:38.786Z,8
2023-08-29T12:37:38.766Z,9
2023-08-29T12:38:38.787Z,9
2023-08-29T12:39:38.783Z,9
2023-08-29T12:40:38.780Z,11
2023-08-29T12:41:38.678Z,9
2023-08-29T12:42:38.799Z,9
2023-08-29T12:43:38.709Z,10
2023-08-29T12:44:38.806Z,8
2023-08-29T12:45:52.661Z,8
2023-08-29T12:46:38.757Z,5
2023-08-29T12:47:38.969Z,5
2023-08-29T12:48:38.778Z,5
2023-08-29T12:49:38.741Z,7
2023-08-29T12:50:38.763Z,6
2023-08-29T12:51:38.708Z,6
2023-08-29T12:52:38.730Z,6
2023-08-29T12:53:38.793Z,7
2023-08-29T12:54:38.777Z,8
2023-08-29T12:55:38.765Z,6
2023-08-29T12:56:38.684Z,8
2023-08-29T12:57:38.803Z,7
2023-08-29T12:58:38.721Z,7
2023-08-29T12:59:38.809Z,9
2023-08-29T13:00:38.823Z,8
2023-08-29T13:01:38.808Z,7
2023-08-29T13:02:38.778Z,7
2023-08-29T13:03:38.818Z,7
2023-08-29T13:04:38.739Z,7
2023-08-29T13:05:39.005Z,6
2023-08-29T13:06:38.706Z,6
2023-08-29T13:07:38.761Z,8
2023-08-29T13:08:38.701Z,9
2023-08-29T13:09:38.764Z,7
2023-08-29T13:10:38.697Z,7
2023-08-29T13:11:38.705Z,10
2023-08-29T13:12:38.699Z,6
2023-08-29T13:13:38.822Z,7
2023-08-29T13:14:40.379Z,8
2023-08-29T13:15:50.409Z,7
2023-08-29T13:16:38.769Z,8
2023-08-29T13:17:38.856Z,7
2023-08-29T13:18:38.759Z,7
2023-08-29T13:19:38.731Z,7
2023-08-29T13:20:38.703Z,7
2023-08-29T13:21:38.714Z,8
2023-08-29T13:22:38.687Z,9
2023-08-29T13:23:38.699Z,6
2023-08-29T13:24:38.695Z,7
2023-08-29T13:25:38.749Z,7
2023-08-29T13:26:38.787Z,6
2023-08-29T13:27:38.776Z,9
2023-08-29T13:28:38.809Z,7
2023-08-29T13:29:38.810Z,7
2023-08-29T13:30:38.714Z,7
2023-08-29T13:31:38.718Z,7
2023-08-29T13:32:38.705Z,5
2023-08-29T13:33:38.836Z,6
2023-08-29T13:34:39.041Z,7
2023-08-29T13:35:38.705Z,7
2023-08-29T13:36:38.709Z,9
2023-08-29T13:37:39.193Z,9
2023-08-29T13:38:38.757Z,11
2023-08-29T13:39:38.878Z,9
2023-08-29T13:40:38.773Z,9
2023-08-29T13:41:38.730Z,9
2023-08-29T13:42:38.746Z,10
2023-08-29T13:43:38.717Z,11
2023-08-29T13:44:38.733Z,10
2023-08-29T13:45:38.729Z,9
2023-08-29T13:46:38.705Z,11
2023-08-29T13:47:38.779Z,10
2023-08-29T13:48:38.736Z,11
2023-08-29T13:49:38.764Z,12
2023-08-29T13:50:38.864Z,11
2023-08-29T13:51:38.713Z,12
2023-08-29T13:52:38.751Z,11
2023-08-29T13:53:38.776Z,13
2023-08-29T13:54:38.788Z,10
2023-08-29T13:55:38.770Z,12
2023-08-29T13:56:38.950Z,12
2023-08-29T13:57:38.816Z,12
2023-08-29T13:58:38.765Z,12
2023-08-29T13:59:38.771Z,10
2023-08-29T14:00:38.707Z,9
2023-08-29T14:01:38.738Z,9
2023-08-29T14:02:38.790Z,9
2023-08-29T14:03:39.627Z,9
2023-08-29T14:04:38.742Z,9
2023-08-29T14:05:38.834Z,8
2023-08-29T14:06:38.839Z,9
2023-08-29T14:07:38.763Z,9
2023-08-29T14:08:38.869Z,10
2023-08-29T14:09:38.771Z,9
2023-08-29T14:10:38.810Z,9
2023-08-29T14:11:38.741Z,11
2023-08-29T14:12:38.704Z,12
2023-08-29T14:13:38.811Z,11
2023-08-29T14:14:38.820Z,10
2023-08-29T14:15:38.727Z,10
2023-08-29T14:16:38.848Z,10
2023-08-29T14:17:38.773Z,10
2023-08-29T14:18:38.719Z,10